AAL1333 KCMH-KCLT
Flight info
| Callsign | AAL1333 |
|---|---|
| Flight time | 1h 1m |
| Altitude | 35000 |
| Route | DCT POBSE DCT OHIOS DCT LNDIZ PARQR4 |
| Aircraft | A320/M-VGDW/C |
Departure
| Time | 2026-05-07 22:57 |
|---|---|
| Airport | John Glenn Columbus International Airport (KCMH) |
Arrival
| Time | 2026-05-07 23:58 |
|---|---|
| Airport | Charlotte Douglas International Airport (KCLT) |
| Time | Latitude | Longitude | Altitude | Speed | Heading |
|---|---|---|---|---|---|
| 2026-05-07 22:25 | 39.99747 | -82.88154 | 822 ft | 0 kts | 9° |
| 2026-05-07 22:48 | 39.99724 | -82.88158 | 821 ft | 4 kts | 9° |
| 2026-05-07 22:48 | 39.99703 | -82.88163 | 819 ft | 2 kts | 25° |
| 2026-05-07 22:49 | 39.99693 | -82.88171 | 821 ft | 2 kts | 80° |
| 2026-05-07 22:49 | 39.99693 | -82.88185 | 821 ft | 2 kts | 99° |
| 2026-05-07 22:49 | 39.99694 | -82.88194 | 820 ft | 0 kts | 99° |
| 2026-05-07 22:51 | 39.99694 | -82.88193 | 820 ft | 1 kts | 101° |
| 2026-05-07 22:52 | 39.99665 | -82.88159 | 820 ft | 7 kts | 152° |
| 2026-05-07 22:52 | 39.99624 | -82.88129 | 818 ft | 7 kts | 149° |
| 2026-05-07 22:52 | 39.99607 | -82.88088 | 819 ft | 4 kts | 95° |
| 2026-05-07 22:52 | 39.99605 | -82.88022 | 821 ft | 12 kts | 93° |
| 2026-05-07 22:53 | 39.99598 | -82.87925 | 820 ft | 9 kts | 95° |
| 2026-05-07 22:53 | 39.99593 | -82.87851 | 824 ft | 7 kts | 96° |
| 2026-05-07 22:53 | 39.99577 | -82.87804 | 823 ft | 6 kts | 130° |
| 2026-05-07 22:53 | 39.99511 | -82.87784 | 824 ft | 14 kts | 185° |
| 2026-05-07 22:54 | 39.99418 | -82.87789 | 824 ft | 13 kts | 175° |
| 2026-05-07 22:54 | 39.99366 | -82.87709 | 823 ft | 12 kts | 98° |
| 2026-05-07 22:54 | 39.99358 | -82.87609 | 823 ft | 10 kts | 96° |
| 2026-05-07 22:54 | 39.99351 | -82.87518 | 822 ft | 11 kts | 96° |
| 2026-05-07 22:55 | 39.99339 | -82.87365 | 819 ft | 18 kts | 107° |
| 2026-05-07 22:55 | 39.99273 | -82.87319 | 818 ft | 10 kts | 184° |
| 2026-05-07 22:55 | 39.99191 | -82.87340 | 819 ft | 13 kts | 218° |
| 2026-05-07 22:55 | 39.99168 | -82.87450 | 819 ft | 14 kts | 273° |
| 2026-05-07 22:56 | 39.99181 | -82.87673 | 818 ft | 52 kts | 275° |
| 2026-05-07 22:56 | 39.99224 | -82.88443 | 823 ft | 116 kts | 274° |
| 2026-05-07 22:56 | 39.99296 | -82.89711 | 878 ft | 158 kts | 277° |
| 2026-05-07 22:56 | 39.99329 | -82.91212 | 1316 ft | 173 kts | 274° |
| 2026-05-07 22:57 | 39.99357 | -82.92844 | 1890 ft | 186 kts | 275° |
| 2026-05-07 22:57 | 39.99249 | -82.94514 | 2690 ft | 192 kts | 256° |
| 2026-05-07 22:57 | 39.98612 | -82.96162 | 3137 ft | 216 kts | 238° |
| 2026-05-07 22:57 | 39.97355 | -82.97455 | 3483 ft | 250 kts | 202° |
| 2026-05-07 22:58 | 39.95550 | -82.97550 | 4043 ft | 274 kts | 167° |
| 2026-05-07 22:58 | 39.93754 | -82.96616 | 4919 ft | 281 kts | 155° |
| 2026-05-07 22:58 | 39.92027 | -82.95382 | 5817 ft | 285 kts | 151° |
| 2026-05-07 22:58 | 39.90315 | -82.94041 | 6725 ft | 289 kts | 150° |
| 2026-05-07 22:59 | 39.88586 | -82.92675 | 7585 ft | 293 kts | 150° |
| 2026-05-07 22:59 | 39.86823 | -82.91313 | 8425 ft | 296 kts | 152° |
| 2026-05-07 22:59 | 39.85025 | -82.89960 | 9263 ft | 301 kts | 153° |
| 2026-05-07 22:59 | 39.83190 | -82.88610 | 10051 ft | 306 kts | 153° |
| 2026-05-07 23:00 | 39.81274 | -82.87226 | 10435 ft | 326 kts | 154° |
| 2026-05-07 23:00 | 39.79221 | -82.85759 | 10764 ft | 345 kts | 154° |
| 2026-05-07 23:00 | 39.77095 | -82.84237 | 11426 ft | 352 kts | 154° |
| 2026-05-07 23:00 | 39.74935 | -82.82688 | 12160 ft | 357 kts | 154° |
| 2026-05-07 23:01 | 39.72744 | -82.81117 | 12786 ft | 363 kts | 155° |
| 2026-05-07 23:01 | 39.70530 | -82.79530 | 12977 ft | 364 kts | 155° |
| 2026-05-07 23:01 | 39.68318 | -82.77945 | 13033 ft | 365 kts | 153° |
| 2026-05-07 23:01 | 39.66084 | -82.76349 | 13751 ft | 367 kts | 155° |
| 2026-05-07 23:02 | 39.63876 | -82.74773 | 14414 ft | 371 kts | 155° |
| 2026-05-07 23:02 | 39.61608 | -82.73157 | 15055 ft | 374 kts | 156° |
| 2026-05-07 23:02 | 39.59315 | -82.71522 | 15676 ft | 379 kts | 157° |
| 2026-05-07 23:02 | 39.56990 | -82.69866 | 16266 ft | 383 kts | 159° |
| 2026-05-07 23:03 | 39.54640 | -82.68195 | 16853 ft | 387 kts | 159° |
| 2026-05-07 23:03 | 39.52262 | -82.66508 | 17472 ft | 391 kts | 160° |
| 2026-05-07 23:03 | 39.49864 | -82.64807 | 18119 ft | 395 kts | 160° |
| 2026-05-07 23:03 | 39.47411 | -82.63223 | 18617 ft | 391 kts | 168° |
| 2026-05-07 23:04 | 39.44842 | -82.62206 | 19146 ft | 382 kts | 179° |
| 2026-05-07 23:04 | 39.42238 | -82.61781 | 19697 ft | 373 kts | 189° |
| 2026-05-07 23:04 | 39.39675 | -82.61900 | 20227 ft | 367 kts | 196° |
| 2026-05-07 23:04 | 39.37115 | -82.62171 | 20797 ft | 370 kts | 196° |
| 2026-05-07 23:05 | 39.34543 | -82.62441 | 21328 ft | 373 kts | 196° |
| 2026-05-07 23:05 | 39.31947 | -82.62711 | 21859 ft | 376 kts | 197° |
| 2026-05-07 23:05 | 39.29325 | -82.62980 | 22406 ft | 380 kts | 197° |
| 2026-05-07 23:05 | 39.26680 | -82.63247 | 22938 ft | 383 kts | 197° |
| 2026-05-07 23:06 | 39.24015 | -82.63515 | 23476 ft | 386 kts | 197° |
| 2026-05-07 23:06 | 39.21329 | -82.63786 | 23932 ft | 388 kts | 197° |
| 2026-05-07 23:06 | 39.18627 | -82.64062 | 24364 ft | 390 kts | 197° |
| 2026-05-07 23:06 | 39.15914 | -82.64337 | 24799 ft | 392 kts | 197° |
| 2026-05-07 23:07 | 39.13189 | -82.64612 | 25215 ft | 394 kts | 197° |
| 2026-05-07 23:07 | 39.10447 | -82.64890 | 25575 ft | 396 kts | 198° |
| 2026-05-07 23:07 | 39.07694 | -82.65171 | 25977 ft | 398 kts | 198° |
| 2026-05-07 23:07 | 39.04923 | -82.65455 | 26384 ft | 400 kts | 198° |
| 2026-05-07 23:08 | 39.02145 | -82.65738 | 26765 ft | 402 kts | 198° |
| 2026-05-07 23:08 | 38.99349 | -82.66022 | 27151 ft | 404 kts | 198° |
| 2026-05-07 23:08 | 38.96544 | -82.66304 | 27536 ft | 405 kts | 198° |
| 2026-05-07 23:08 | 38.93728 | -82.66582 | 27910 ft | 407 kts | 198° |
| 2026-05-07 23:09 | 38.91849 | -82.66765 | 28158 ft | 409 kts | 198° |
| 2026-05-07 23:09 | 38.89009 | -82.67044 | 28471 ft | 410 kts | 198° |
| 2026-05-07 23:09 | 38.86156 | -82.67328 | 28832 ft | 413 kts | 198° |
| 2026-05-07 23:09 | 38.83226 | -82.67308 | 29176 ft | 432 kts | 189° |
| 2026-05-07 23:10 | 38.80195 | -82.66624 | 29504 ft | 454 kts | 178° |
| 2026-05-07 23:10 | 38.77162 | -82.65211 | 29813 ft | 473 kts | 170° |
| 2026-05-07 23:10 | 38.74140 | -82.63522 | 30107 ft | 475 kts | 170° |
| 2026-05-07 23:10 | 38.71108 | -82.61821 | 30362 ft | 477 kts | 170° |
| 2026-05-07 23:11 | 38.68061 | -82.60119 | 30610 ft | 479 kts | 170° |
| 2026-05-07 23:11 | 38.65002 | -82.58419 | 30783 ft | 481 kts | 170° |
| 2026-05-07 23:11 | 38.61923 | -82.56718 | 31017 ft | 482 kts | 170° |
| 2026-05-07 23:11 | 38.58839 | -82.55020 | 31239 ft | 484 kts | 170° |
| 2026-05-07 23:12 | 38.55744 | -82.53315 | 31515 ft | 484 kts | 171° |
| 2026-05-07 23:12 | 38.52650 | -82.51603 | 31830 ft | 484 kts | 171° |
| 2026-05-07 23:12 | 38.49567 | -82.49898 | 32123 ft | 483 kts | 171° |
| 2026-05-07 23:12 | 38.46484 | -82.48199 | 32429 ft | 483 kts | 171° |
| 2026-05-07 23:13 | 38.43400 | -82.46502 | 32760 ft | 482 kts | 171° |
| 2026-05-07 23:13 | 38.40322 | -82.44813 | 33017 ft | 482 kts | 171° |
| 2026-05-07 23:13 | 38.37245 | -82.43124 | 33336 ft | 481 kts | 171° |
| 2026-05-07 23:13 | 38.34171 | -82.41438 | 33651 ft | 481 kts | 172° |
| 2026-05-07 23:14 | 38.31095 | -82.39754 | 33954 ft | 481 kts | 172° |
| 2026-05-07 23:14 | 38.28019 | -82.38076 | 34215 ft | 481 kts | 172° |
| 2026-05-07 23:14 | 38.24940 | -82.36396 | 34472 ft | 481 kts | 172° |
| 2026-05-07 23:14 | 38.21873 | -82.34720 | 34714 ft | 480 kts | 172° |
| 2026-05-07 23:15 | 38.18800 | -82.33041 | 34920 ft | 481 kts | 171° |
| 2026-05-07 23:15 | 38.12719 | -82.29707 | 34988 ft | 471 kts | 172° |
| 2026-05-07 23:16 | 38.06713 | -82.26440 | 34988 ft | 469 kts | 172° |
| 2026-05-07 23:16 | 38.00711 | -82.23202 | 34985 ft | 469 kts | 172° |
| 2026-05-07 23:17 | 37.94715 | -82.19950 | 34984 ft | 469 kts | 172° |
| 2026-05-07 23:17 | 37.88720 | -82.16697 | 34953 ft | 469 kts | 173° |
| 2026-05-07 23:18 | 37.82716 | -82.13465 | 34955 ft | 469 kts | 173° |
| 2026-05-07 23:18 | 37.76708 | -82.10227 | 34963 ft | 470 kts | 173° |
| 2026-05-07 23:19 | 37.70694 | -82.06986 | 34959 ft | 470 kts | 173° |
| 2026-05-07 23:19 | 37.64679 | -82.03750 | 34976 ft | 472 kts | 174° |
| 2026-05-07 23:20 | 37.58627 | -82.00509 | 34982 ft | 473 kts | 173° |
| 2026-05-07 23:20 | 37.52579 | -81.97260 | 34980 ft | 472 kts | 174° |
| 2026-05-07 23:21 | 37.46517 | -81.94016 | 34587 ft | 467 kts | 174° |
| 2026-05-07 23:21 | 37.43545 | -81.92423 | 34040 ft | 462 kts | 175° |
| 2026-05-07 23:21 | 37.40637 | -81.90866 | 33553 ft | 458 kts | 174° |
| 2026-05-07 23:21 | 37.37684 | -81.89287 | 33034 ft | 454 kts | 174° |
| 2026-05-07 23:22 | 37.34788 | -81.87744 | 32567 ft | 450 kts | 174° |
| 2026-05-07 23:22 | 37.31916 | -81.86217 | 32114 ft | 446 kts | 174° |
| 2026-05-07 23:22 | 37.29066 | -81.84706 | 31633 ft | 443 kts | 174° |
| 2026-05-07 23:22 | 37.26238 | -81.83206 | 31227 ft | 439 kts | 173° |
| 2026-05-07 23:23 | 37.23435 | -81.81717 | 30801 ft | 436 kts | 173° |
| 2026-05-07 23:23 | 37.20648 | -81.80241 | 30272 ft | 434 kts | 173° |
| 2026-05-07 23:23 | 37.17878 | -81.78779 | 29985 ft | 431 kts | 174° |
| 2026-05-07 23:24 | 37.12335 | -81.76185 | 30023 ft | 413 kts | 185° |
| 2026-05-07 23:24 | 37.06742 | -81.75615 | 30027 ft | 395 kts | 201° |
| 2026-05-07 23:25 | 37.01218 | -81.76066 | 30025 ft | 399 kts | 201° |
| 2026-05-07 23:25 | 36.95678 | -81.76478 | 30022 ft | 398 kts | 200° |
| 2026-05-07 23:26 | 36.90156 | -81.76917 | 30009 ft | 397 kts | 202° |
| 2026-05-07 23:26 | 36.84648 | -81.77408 | 29998 ft | 396 kts | 202° |
| 2026-05-07 23:27 | 36.76410 | -81.78151 | 29999 ft | 396 kts | 202° |
| 2026-05-07 23:27 | 36.70917 | -81.78635 | 30003 ft | 396 kts | 202° |
| 2026-05-07 23:28 | 36.65434 | -81.79101 | 30005 ft | 394 kts | 202° |
| 2026-05-07 23:28 | 36.59978 | -81.79574 | 29999 ft | 393 kts | 202° |
| 2026-05-07 23:29 | 36.54519 | -81.80060 | 29686 ft | 396 kts | 202° |
| 2026-05-07 23:29 | 36.51784 | -81.80302 | 29212 ft | 391 kts | 202° |
| 2026-05-07 23:29 | 36.49077 | -81.80532 | 28796 ft | 389 kts | 201° |
| 2026-05-07 23:30 | 36.46361 | -81.80654 | 28329 ft | 399 kts | 195° |
| 2026-05-07 23:30 | 36.43541 | -81.80168 | 27967 ft | 420 kts | 183° |
| 2026-05-07 23:30 | 36.40708 | -81.78935 | 27519 ft | 444 kts | 169° |
| 2026-05-07 23:30 | 36.37956 | -81.77098 | 27053 ft | 449 kts | 166° |
| 2026-05-07 23:31 | 36.35235 | -81.75234 | 26576 ft | 446 kts | 165° |
| 2026-05-07 23:31 | 36.32530 | -81.73378 | 26113 ft | 443 kts | 165° |
| 2026-05-07 23:31 | 36.29839 | -81.71542 | 25637 ft | 440 kts | 164° |
| 2026-05-07 23:31 | 36.27159 | -81.69725 | 25163 ft | 438 kts | 163° |
| 2026-05-07 23:32 | 36.24505 | -81.67936 | 24796 ft | 431 kts | 163° |
| 2026-05-07 23:32 | 36.21860 | -81.66160 | 24248 ft | 430 kts | 163° |
| 2026-05-07 23:32 | 36.19255 | -81.64405 | 23887 ft | 424 kts | 164° |
| 2026-05-07 23:32 | 36.16684 | -81.62671 | 23210 ft | 418 kts | 163° |
| 2026-05-07 23:33 | 36.14130 | -81.60955 | 22699 ft | 417 kts | 163° |
| 2026-05-07 23:33 | 36.11591 | -81.59247 | 22354 ft | 412 kts | 163° |
| 2026-05-07 23:33 | 36.09120 | -81.57576 | 22192 ft | 396 kts | 163° |
| 2026-05-07 23:33 | 36.06751 | -81.55963 | 21653 ft | 384 kts | 163° |
| 2026-05-07 23:34 | 36.04419 | -81.54395 | 21111 ft | 379 kts | 164° |
| 2026-05-07 23:34 | 36.02113 | -81.52859 | 20722 ft | 376 kts | 163° |
| 2026-05-07 23:34 | 35.99812 | -81.51330 | 20354 ft | 374 kts | 162° |
| 2026-05-07 23:34 | 35.97525 | -81.49810 | 19957 ft | 372 kts | 162° |
| 2026-05-07 23:35 | 35.95248 | -81.48295 | 19602 ft | 372 kts | 162° |
| 2026-05-07 23:35 | 35.92980 | -81.46781 | 19215 ft | 370 kts | 162° |
| 2026-05-07 23:35 | 35.90722 | -81.45272 | 18848 ft | 368 kts | 162° |
| 2026-05-07 23:35 | 35.88470 | -81.43769 | 18489 ft | 366 kts | 161° |
| 2026-05-07 23:36 | 35.86236 | -81.42278 | 18131 ft | 365 kts | 161° |
| 2026-05-07 23:36 | 35.84014 | -81.40796 | 17897 ft | 362 kts | 161° |
| 2026-05-07 23:36 | 35.81811 | -81.39328 | 17542 ft | 359 kts | 161° |
| 2026-05-07 23:36 | 35.79620 | -81.37870 | 17187 ft | 357 kts | 161° |
| 2026-05-07 23:37 | 35.77448 | -81.36417 | 16837 ft | 355 kts | 160° |
| 2026-05-07 23:37 | 35.75306 | -81.34926 | 16486 ft | 353 kts | 159° |
| 2026-05-07 23:37 | 35.73186 | -81.33407 | 16149 ft | 352 kts | 158° |
| 2026-05-07 23:37 | 35.71082 | -81.31881 | 15804 ft | 350 kts | 158° |
| 2026-05-07 23:38 | 35.68992 | -81.30362 | 15459 ft | 348 kts | 158° |
| 2026-05-07 23:38 | 35.66907 | -81.28857 | 15123 ft | 347 kts | 158° |
| 2026-05-07 23:38 | 35.64828 | -81.27366 | 14781 ft | 345 kts | 158° |
| 2026-05-07 23:38 | 35.62755 | -81.25885 | 14423 ft | 344 kts | 158° |
| 2026-05-07 23:39 | 35.60693 | -81.24418 | 14097 ft | 342 kts | 158° |
| 2026-05-07 23:39 | 35.58639 | -81.22963 | 13784 ft | 339 kts | 158° |
| 2026-05-07 23:39 | 35.56613 | -81.21524 | 13479 ft | 337 kts | 158° |
| 2026-05-07 23:39 | 35.54619 | -81.20028 | 13220 ft | 333 kts | 155° |
| 2026-05-07 23:40 | 35.52688 | -81.18501 | 12963 ft | 328 kts | 154° |
| 2026-05-07 23:40 | 35.50796 | -81.16974 | 12499 ft | 322 kts | 154° |
| 2026-05-07 23:40 | 35.48935 | -81.15468 | 12132 ft | 319 kts | 154° |
| 2026-05-07 23:40 | 35.47075 | -81.13974 | 12032 ft | 319 kts | 154° |
| 2026-05-07 23:41 | 35.45217 | -81.12493 | 12041 ft | 318 kts | 154° |
| 2026-05-07 23:41 | 35.43359 | -81.11020 | 12044 ft | 318 kts | 154° |
| 2026-05-07 23:41 | 35.41479 | -81.09601 | 12024 ft | 315 kts | 161° |
| 2026-05-07 23:41 | 35.39464 | -81.08643 | 12038 ft | 307 kts | 174° |
| 2026-05-07 23:42 | 35.37391 | -81.08245 | 12036 ft | 298 kts | 185° |
| 2026-05-07 23:42 | 35.35316 | -81.08075 | 12029 ft | 299 kts | 185° |
| 2026-05-07 23:42 | 35.33242 | -81.07896 | 12023 ft | 299 kts | 184° |
| 2026-05-07 23:42 | 35.31169 | -81.07711 | 12028 ft | 299 kts | 184° |
| 2026-05-07 23:43 | 35.29104 | -81.07522 | 11856 ft | 297 kts | 184° |
| 2026-05-07 23:43 | 35.27054 | -81.07333 | 11548 ft | 294 kts | 184° |
| 2026-05-07 23:43 | 35.25022 | -81.07148 | 11231 ft | 292 kts | 183° |
| 2026-05-07 23:43 | 35.23000 | -81.06967 | 10890 ft | 291 kts | 184° |
| 2026-05-07 23:44 | 35.20995 | -81.06790 | 10580 ft | 287 kts | 183° |
| 2026-05-07 23:44 | 35.19011 | -81.06613 | 10249 ft | 285 kts | 183° |
| 2026-05-07 23:44 | 35.17036 | -81.06438 | 9881 ft | 284 kts | 183° |
| 2026-05-07 23:44 | 35.15065 | -81.06266 | 9431 ft | 283 kts | 183° |
| 2026-05-07 23:45 | 35.13104 | -81.06093 | 9026 ft | 282 kts | 183° |
| 2026-05-07 23:45 | 35.11156 | -81.05918 | 8589 ft | 280 kts | 182° |
| 2026-05-07 23:45 | 35.09214 | -81.05742 | 8182 ft | 279 kts | 182° |
| 2026-05-07 23:45 | 35.07277 | -81.05570 | 7771 ft | 279 kts | 182° |
| 2026-05-07 23:46 | 35.05355 | -81.05399 | 7074 ft | 280 kts | 181° |
| 2026-05-07 23:46 | 35.03399 | -81.05206 | 6430 ft | 278 kts | 180° |
| 2026-05-07 23:46 | 35.01494 | -81.05002 | 5831 ft | 273 kts | 180° |
| 2026-05-07 23:46 | 34.99607 | -81.04797 | 5111 ft | 272 kts | 178° |
| 2026-05-07 23:47 | 34.97707 | -81.04592 | 4339 ft | 276 kts | 178° |
| 2026-05-07 23:47 | 34.95781 | -81.04387 | 4048 ft | 280 kts | 177° |
| 2026-05-07 23:47 | 34.94460 | -81.04246 | 3968 ft | 282 kts | 176° |
| 2026-05-07 23:47 | 34.92505 | -81.04037 | 3969 ft | 283 kts | 177° |
| 2026-05-07 23:48 | 34.90548 | -81.03830 | 3966 ft | 281 kts | 179° |
| 2026-05-07 23:48 | 34.88619 | -81.03627 | 3968 ft | 277 kts | 179° |
| 2026-05-07 23:48 | 34.86745 | -81.03063 | 3970 ft | 282 kts | 155° |
| 2026-05-07 23:48 | 34.85244 | -81.01532 | 3970 ft | 286 kts | 126° |
| 2026-05-07 23:49 | 34.84461 | -80.99330 | 3965 ft | 285 kts | 97° |
| 2026-05-07 23:49 | 34.84574 | -80.96946 | 3981 ft | 283 kts | 69° |
| 2026-05-07 23:49 | 34.85542 | -80.94919 | 3979 ft | 275 kts | 40° |
| 2026-05-07 23:49 | 34.87058 | -80.93621 | 3967 ft | 258 kts | 24° |
| 2026-05-07 23:50 | 34.88585 | -80.92625 | 3964 ft | 240 kts | 22° |
| 2026-05-07 23:50 | 34.90026 | -80.91708 | 3968 ft | 230 kts | 22° |
| 2026-05-07 23:50 | 34.91435 | -80.90821 | 3989 ft | 223 kts | 21° |
| 2026-05-07 23:50 | 34.92793 | -80.89972 | 3980 ft | 220 kts | 22° |
| 2026-05-07 23:51 | 34.94190 | -80.89212 | 3976 ft | 218 kts | 9° |
| 2026-05-07 23:51 | 34.95638 | -80.89311 | 3977 ft | 209 kts | 332° |
| 2026-05-07 23:51 | 34.96836 | -80.90311 | 3978 ft | 210 kts | 321° |
| 2026-05-07 23:51 | 34.98073 | -80.91251 | 3974 ft | 210 kts | 338° |
| 2026-05-07 23:52 | 34.99460 | -80.91646 | 3971 ft | 199 kts | 354° |
| 2026-05-07 23:52 | 35.00796 | -80.91756 | 3984 ft | 185 kts | 354° |
| 2026-05-07 23:52 | 35.02045 | -80.91864 | 3982 ft | 173 kts | 354° |
| 2026-05-07 23:52 | 35.03217 | -80.91965 | 3887 ft | 167 kts | 354° |
| 2026-05-07 23:53 | 35.04354 | -80.92062 | 3716 ft | 158 kts | 354° |
| 2026-05-07 23:53 | 35.05387 | -80.92150 | 3519 ft | 141 kts | 354° |
| 2026-05-07 23:53 | 35.06337 | -80.92232 | 3353 ft | 134 kts | 355° |
| 2026-05-07 23:53 | 35.07253 | -80.92311 | 3190 ft | 131 kts | 355° |
| 2026-05-07 23:54 | 35.08160 | -80.92388 | 3026 ft | 129 kts | 355° |
| 2026-05-07 23:54 | 35.09049 | -80.92465 | 2841 ft | 126 kts | 356° |
| 2026-05-07 23:54 | 35.09910 | -80.92538 | 2681 ft | 124 kts | 356° |
| 2026-05-07 23:54 | 35.10791 | -80.92613 | 2507 ft | 130 kts | 356° |
| 2026-05-07 23:55 | 35.11706 | -80.92692 | 2348 ft | 135 kts | 356° |
| 2026-05-07 23:55 | 35.12661 | -80.92774 | 2158 ft | 140 kts | 356° |
| 2026-05-07 23:55 | 35.13646 | -80.92858 | 1974 ft | 144 kts | 356° |
| 2026-05-07 23:55 | 35.14654 | -80.92945 | 1777 ft | 146 kts | 356° |
| 2026-05-07 23:56 | 35.15670 | -80.93032 | 1637 ft | 146 kts | 356° |
| 2026-05-07 23:56 | 35.16659 | -80.93116 | 1448 ft | 139 kts | 355° |
| 2026-05-07 23:56 | 35.17612 | -80.93199 | 1273 ft | 136 kts | 1° |
| 2026-05-07 23:56 | 35.18549 | -80.93279 | 1099 ft | 134 kts | 359° |
| 2026-05-07 23:57 | 35.19470 | -80.93358 | 903 ft | 131 kts | 358° |
| 2026-05-07 23:57 | 35.20372 | -80.93431 | 723 ft | 126 kts | 358° |
| 2026-05-07 23:57 | 35.21135 | -80.93495 | 721 ft | 93 kts | 356° |
| 2026-05-07 23:57 | 35.21655 | -80.93543 | 724 ft | 57 kts | 354° |
| 2026-05-07 23:58 | 35.21944 | -80.93574 | 729 ft | 32 kts | 354° |
| 2026-05-07 23:58 | 35.22010 | -80.93660 | 726 ft | 14 kts | 238° |
| 2026-05-07 23:58 | 35.21989 | -80.93689 | 728 ft | 0 kts | 229° |
| 2026-05-08 00:00 | 35.21987 | -80.93692 | 725 ft | 3 kts | 229° |
| 2026-05-08 00:00 | 35.21926 | -80.93778 | 726 ft | 16 kts | 228° |
| 2026-05-08 00:00 | 35.21857 | -80.93881 | 726 ft | 15 kts | 251° |
| 2026-05-08 00:01 | 35.21920 | -80.93954 | 728 ft | 14 kts | 344° |
| 2026-05-08 00:01 | 35.22001 | -80.93970 | 726 ft | 7 kts | 356° |
| 2026-05-08 00:01 | 35.22011 | -80.93971 | 726 ft | 0 kts | 356° |